sensor_id;sensor_type;location;lat;lon;timestamp;P1;durP1;ratioP1;P2;durP2;ratioP2
4148;SDS011;2088;51.032;7.082;2022-07-03T00:00:13;1.60;;;1.50;;
4148;SDS011;2088;51.032;7.082;2022-07-03T00:02:40;1.93;;;1.80;;
4148;SDS011;2088;51.032;7.082;2022-07-03T00:05:06;2.03;;;1.47;;
4148;SDS011;2088;51.032;7.082;2022-07-03T00:07:34;2.00;;;1.40;;
4148;SDS011;2088;51.032;7.082;2022-07-03T00:10:02;3.30;;;1.53;;
4148;SDS011;2088;51.032;7.082;2022-07-03T00:12:28;1.73;;;1.63;;
4148;SDS011;2088;51.032;7.082;2022-07-03T00:14:55;2.60;;;1.73;;
4148;SDS011;2088;51.032;7.082;2022-07-03T00:17:22;1.83;;;1.57;;
4148;SDS011;2088;51.032;7.082;2022-07-03T00:19:48;14.13;;;2.07;;
4148;SDS011;2088;51.032;7.082;2022-07-03T00:22:15;2.70;;;1.77;;
4148;SDS011;2088;51.032;7.082;2022-07-03T00:24:42;2.40;;;2.20;;
4148;SDS011;2088;51.032;7.082;2022-07-03T00:27:12;3.20;;;1.60;;
4148;SDS011;2088;51.032;7.082;2022-07-03T00:29:42;2.50;;;1.20;;
4148;SDS011;2088;51.032;7.082;2022-07-03T00:32:13;1.23;;;1.13;;
4148;SDS011;2088;51.032;7.082;2022-07-03T00:34:44;1.30;;;1.20;;
4148;SDS011;2088;51.032;7.082;2022-07-03T00:37:13;2.53;;;1.63;;
4148;SDS011;2088;51.032;7.082;2022-07-03T00:39:40;1.50;;;1.40;;
4148;SDS011;2088;51.032;7.082;2022-07-03T00:42:08;1.60;;;1.10;;
4148;SDS011;2088;51.032;7.082;2022-07-03T00:44:47;1.73;;;1.43;;
4148;SDS011;2088;51.032;7.082;2022-07-03T00:47:15;4.53;;;1.67;;
4148;SDS011;2088;51.032;7.082;2022-07-03T00:49:43;2.30;;;1.83;;
4148;SDS011;2088;51.032;7.082;2022-07-03T00:52:12;6.23;;;3.03;;
4148;SDS011;2088;51.032;7.082;2022-07-03T00:54:42;1.87;;;1.63;;
4148;SDS011;2088;51.032;7.082;2022-07-03T00:57:12;6.60;;;1.57;;
4148;SDS011;2088;51.032;7.082;2022-07-03T00:59:42;2.20;;;1.20;;
4148;SDS011;2088;51.032;7.082;2022-07-03T01:02:11;1.80;;;1.70;;
4148;SDS011;2088;51.032;7.082;2022-07-03T01:04:46;3.70;;;1.43;;
4148;SDS011;2088;51.032;7.082;2022-07-03T01:07:18;1.50;;;1.40;;
4148;SDS011;2088;51.032;7.082;2022-07-03T01:09:55;1.63;;;1.53;;
4148;SDS011;2088;51.032;7.082;2022-07-03T01:12:33;3.13;;;1.37;;
4148;SDS011;2088;51.032;7.082;2022-07-03T01:15:12;1.77;;;1.33;;
4148;SDS011;2088;51.032;7.082;2022-07-03T01:17:49;1.20;;;1.10;;
4148;SDS011;2088;51.032;7.082;2022-07-03T01:20:26;1.30;;;1.10;;
4148;SDS011;2088;51.032;7.082;2022-07-03T01:22:54;2.80;;;2.07;;
4148;SDS011;2088;51.032;7.082;2022-07-03T01:25:25;2.30;;;1.63;;
4148;SDS011;2088;51.032;7.082;2022-07-03T01:28:01;2.63;;;2.20;;
4148;SDS011;2088;51.032;7.082;2022-07-03T01:30:35;4.20;;;1.93;;
4148;SDS011;2088;51.032;7.082;2022-07-03T01:33:06;2.03;;;1.83;;
4148;SDS011;2088;51.032;7.082;2022-07-03T01:35:34;2.70;;;1.37;;
4148;SDS011;2088;51.032;7.082;2022-07-03T01:38:04;2.60;;;1.33;;
4148;SDS011;2088;51.032;7.082;2022-07-03T01:40:33;2.13;;;1.97;;
4148;SDS011;2088;51.032;7.082;2022-07-03T01:43:03;2.80;;;1.40;;
4148;SDS011;2088;51.032;7.082;2022-07-03T01:45:32;3.40;;;2.43;;
4148;SDS011;2088;51.032;7.082;2022-07-03T01:48:02;2.90;;;1.33;;
4148;SDS011;2088;51.032;7.082;2022-07-03T01:50:30;1.23;;;1.13;;
4148;SDS011;2088;51.032;7.082;2022-07-03T01:52:59;1.90;;;1.70;;
4148;SDS011;2088;51.032;7.082;2022-07-03T01:55:28;1.23;;;1.13;;
4148;SDS011;2088;51.032;7.082;2022-07-03T01:57:56;2.40;;;1.20;;
4148;SDS011;2088;51.032;7.082;2022-07-03T02:00:25;1.77;;;1.67;;
4148;SDS011;2088;51.032;7.082;2022-07-03T02:02:54;1.70;;;1.60;;
4148;SDS011;2088;51.032;7.082;2022-07-03T02:05:34;1.57;;;1.47;;
4148;SDS011;2088;51.032;7.082;2022-07-03T02:08:11;5.53;;;1.90;;
4148;SDS011;2088;51.032;7.082;2022-07-03T02:10:51;1.73;;;1.63;;
4148;SDS011;2088;51.032;7.082;2022-07-03T02:13:36;2.33;;;2.07;;
4148;SDS011;2088;51.032;7.082;2022-07-03T02:16:06;4.03;;;1.30;;
4148;SDS011;2088;51.032;7.082;2022-07-03T02:18:35;1.57;;;1.47;;
4148;SDS011;2088;51.032;7.082;2022-07-03T02:21:04;2.03;;;1.70;;
4148;SDS011;2088;51.032;7.082;2022-07-03T02:23:43;1.73;;;1.63;;
4148;SDS011;2088;51.032;7.082;2022-07-03T02:26:19;1.67;;;1.40;;
4148;SDS011;2088;51.032;7.082;2022-07-03T02:28:54;1.17;;;1.07;;
4148;SDS011;2088;51.032;7.082;2022-07-03T02:31:26;2.07;;;1.70;;
4148;SDS011;2088;51.032;7.082;2022-07-03T02:33:55;1.30;;;1.20;;
4148;SDS011;2088;51.032;7.082;2022-07-03T02:36:27;1.93;;;1.50;;
4148;SDS011;2088;51.032;7.082;2022-07-03T02:38:55;2.80;;;2.23;;
4148;SDS011;2088;51.032;7.082;2022-07-03T02:41:25;2.80;;;1.67;;
4148;SDS011;2088;51.032;7.082;2022-07-03T02:43:59;13.00;;;2.50;;
4148;SDS011;2088;51.032;7.082;2022-07-03T02:46:37;1.93;;;1.40;;
4148;SDS011;2088;51.032;7.082;2022-07-03T02:49:16;1.80;;;1.70;;
4148;SDS011;2088;51.032;7.082;2022-07-03T02:51:51;1.67;;;1.57;;
4148;SDS011;2088;51.032;7.082;2022-07-03T02:54:23;1.43;;;1.30;;
4148;SDS011;2088;51.032;7.082;2022-07-03T02:56:53;1.93;;;1.60;;
4148;SDS011;2088;51.032;7.082;2022-07-03T02:59:39;2.60;;;1.40;;
4148;SDS011;2088;51.032;7.082;2022-07-03T03:02:19;2.47;;;2.10;;
4148;SDS011;2088;51.032;7.082;2022-07-03T03:04:55;4.60;;;1.53;;
4148;SDS011;2088;51.032;7.082;2022-07-03T03:07:26;8.20;;;2.07;;
4148;SDS011;2088;51.032;7.082;2022-07-03T03:09:59;5.63;;;1.63;;
4148;SDS011;2088;51.032;7.082;2022-07-03T03:12:27;1.77;;;1.50;;
4148;SDS011;2088;51.032;7.082;2022-07-03T03:14:59;1.70;;;1.60;;
4148;SDS011;2088;51.032;7.082;2022-07-03T03:17:29;1.73;;;1.60;;
4148;SDS011;2088;51.032;7.082;2022-07-03T03:20:06;1.30;;;1.20;;
4148;SDS011;2088;51.032;7.082;2022-07-03T03:22:37;1.77;;;1.30;;
4148;SDS011;2088;51.032;7.082;2022-07-03T03:25:19;1.40;;;1.30;;
4148;SDS011;2088;51.032;7.082;2022-07-03T03:27:46;1.57;;;1.30;;
4148;SDS011;2088;51.032;7.082;2022-07-03T03:30:12;1.43;;;1.33;;
4148;SDS011;2088;51.032;7.082;2022-07-03T03:32:40;1.57;;;1.47;;
4148;SDS011;2088;51.032;7.082;2022-07-03T03:35:08;2.90;;;1.50;;
4148;SDS011;2088;51.032;7.082;2022-07-03T03:37:35;8.73;;;1.97;;
4148;SDS011;2088;51.032;7.082;2022-07-03T03:40:02;2.83;;;1.23;;
4148;SDS011;2088;51.032;7.082;2022-07-03T03:42:28;1.40;;;1.30;;
4148;SDS011;2088;51.032;7.082;2022-07-03T03:44:55;1.50;;;1.40;;
4148;SDS011;2088;51.032;7.082;2022-07-03T03:47:21;2.47;;;1.30;;
4148;SDS011;2088;51.032;7.082;2022-07-03T03:49:49;3.20;;;1.70;;
4148;SDS011;2088;51.032;7.082;2022-07-03T03:52:16;1.90;;;1.80;;
4148;SDS011;2088;51.032;7.082;2022-07-03T03:54:42;1.50;;;1.40;;
4148;SDS011;2088;51.032;7.082;2022-07-03T03:57:16;1.13;;;1.03;;
4148;SDS011;2088;51.032;7.082;2022-07-03T03:59:44;1.20;;;1.10;;
4148;SDS011;2088;51.032;7.082;2022-07-03T04:02:10;2.13;;;1.70;;
4148;SDS011;2088;51.032;7.082;2022-07-03T04:04:37;2.00;;;1.90;;
4148;SDS011;2088;51.032;7.082;2022-07-03T04:07:05;2.93;;;1.70;;
4148;SDS011;2088;51.032;7.082;2022-07-03T04:09:31;1.00;;;0.90;;
4148;SDS011;2088;51.032;7.082;2022-07-03T04:11:58;5.60;;;1.93;;
4148;SDS011;2088;51.032;7.082;2022-07-03T04:14:24;2.83;;;1.83;;
4148;SDS011;2088;51.032;7.082;2022-07-03T04:16:51;1.70;;;1.60;;
4148;SDS011;2088;51.032;7.082;2022-07-03T04:19:18;3.40;;;1.90;;
4148;SDS011;2088;51.032;7.082;2022-07-03T04:21:44;1.57;;;1.47;;
4148;SDS011;2088;51.032;7.082;2022-07-03T04:24:12;2.13;;;1.60;;
4148;SDS011;2088;51.032;7.082;2022-07-03T04:26:38;1.67;;;1.23;;
4148;SDS011;2088;51.032;7.082;2022-07-03T04:29:05;1.60;;;1.30;;
4148;SDS011;2088;51.032;7.082;2022-07-03T04:31:31;1.20;;;1.10;;
4148;SDS011;2088;51.032;7.082;2022-07-03T04:33:58;2.47;;;1.57;;
4148;SDS011;2088;51.032;7.082;2022-07-03T04:36:24;2.20;;;1.20;;
4148;SDS011;2088;51.032;7.082;2022-07-03T04:38:51;1.43;;;1.33;;
4148;SDS011;2088;51.032;7.082;2022-07-03T04:41:19;3.03;;;1.90;;
4148;SDS011;2088;51.032;7.082;2022-07-03T04:43:45;1.30;;;1.20;;
4148;SDS011;2088;51.032;7.082;2022-07-03T04:46:11;3.63;;;1.30;;
4148;SDS011;2088;51.032;7.082;2022-07-03T04:48:38;1.40;;;1.10;;
4148;SDS011;2088;51.032;7.082;2022-07-03T04:51:05;1.40;;;1.30;;
4148;SDS011;2088;51.032;7.082;2022-07-03T04:53:31;10.07;;;1.93;;
4148;SDS011;2088;51.032;7.082;2022-07-03T04:55:58;1.53;;;1.30;;
4148;SDS011;2088;51.032;7.082;2022-07-03T04:58:26;3.90;;;1.33;;
4148;SDS011;2088;51.032;7.082;2022-07-03T05:00:52;2.37;;;1.70;;
4148;SDS011;2088;51.032;7.082;2022-07-03T05:03:18;5.90;;;2.37;;
4148;SDS011;2088;51.032;7.082;2022-07-03T05:05:45;1.60;;;1.50;;
4148;SDS011;2088;51.032;7.082;2022-07-03T05:08:11;2.43;;;2.33;;
4148;SDS011;2088;51.032;7.082;2022-07-03T05:10:38;3.83;;;1.53;;
4148;SDS011;2088;51.032;7.082;2022-07-03T05:13:04;1.73;;;1.63;;
4148;SDS011;2088;51.032;7.082;2022-07-03T05:15:32;4.13;;;1.50;;
4148;SDS011;2088;51.032;7.082;2022-07-03T05:17:59;1.53;;;1.20;;
4148;SDS011;2088;51.032;7.082;2022-07-03T05:20:25;1.97;;;1.20;;
4148;SDS011;2088;51.032;7.082;2022-07-03T05:22:54;1.83;;;1.17;;
4148;SDS011;2088;51.032;7.082;2022-07-03T05:25:21;1.83;;;1.57;;
4148;SDS011;2088;51.032;7.082;2022-07-03T05:27:48;1.70;;;1.60;;
4148;SDS011;2088;51.032;7.082;2022-07-03T05:30:16;2.60;;;1.50;;
4148;SDS011;2088;51.032;7.082;2022-07-03T05:32:44;1.20;;;1.10;;
4148;SDS011;2088;51.032;7.082;2022-07-03T05:35:11;2.43;;;1.50;;
4148;SDS011;2088;51.032;7.082;2022-07-03T05:37:38;2.67;;;1.17;;
4148;SDS011;2088;51.032;7.082;2022-07-03T05:40:04;9.70;;;2.00;;
4148;SDS011;2088;51.032;7.082;2022-07-03T05:42:32;1.30;;;1.20;;
4148;SDS011;2088;51.032;7.082;2022-07-03T05:44:59;2.43;;;2.10;;
4148;SDS011;2088;51.032;7.082;2022-07-03T05:47:26;3.00;;;1.70;;
4148;SDS011;2088;51.032;7.082;2022-07-03T05:49:54;1.30;;;1.20;;
4148;SDS011;2088;51.032;7.082;2022-07-03T05:52:21;6.10;;;1.73;;
4148;SDS011;2088;51.032;7.082;2022-07-03T05:54:47;3.53;;;2.20;;
4148;SDS011;2088;51.032;7.082;2022-07-03T05:57:14;6.83;;;2.93;;
4148;SDS011;2088;51.032;7.082;2022-07-03T05:59:41;1.30;;;1.20;;
4148;SDS011;2088;51.032;7.082;2022-07-03T06:02:07;4.17;;;2.27;;
4148;SDS011;2088;51.032;7.082;2022-07-03T06:04:34;3.30;;;1.67;;
4148;SDS011;2088;51.032;7.082;2022-07-03T06:07:02;2.00;;;1.60;;
4148;SDS011;2088;51.032;7.082;2022-07-03T06:09:28;5.43;;;1.67;;
4148;SDS011;2088;51.032;7.082;2022-07-03T06:11:55;1.87;;;1.70;;
4148;SDS011;2088;51.032;7.082;2022-07-03T06:14:21;1.87;;;1.30;;
4148;SDS011;2088;51.032;7.082;2022-07-03T06:16:48;2.70;;;1.93;;
4148;SDS011;2088;51.032;7.082;2022-07-03T06:19:14;1.57;;;1.47;;
4148;SDS011;2088;51.032;7.082;2022-07-03T06:21:41;3.83;;;1.97;;
4148;SDS011;2088;51.032;7.082;2022-07-03T06:24:11;2.33;;;2.13;;
4148;SDS011;2088;51.032;7.082;2022-07-03T06:26:37;2.23;;;2.03;;
4148;SDS011;2088;51.032;7.082;2022-07-03T06:29:04;9.53;;;3.77;;
4148;SDS011;2088;51.032;7.082;2022-07-03T06:31:30;7.03;;;3.57;;
4148;SDS011;2088;51.032;7.082;2022-07-03T06:36:38;9.10;;;3.53;;
4148;SDS011;2088;51.032;7.082;2022-07-03T06:39:05;4.87;;;4.07;;
4148;SDS011;2088;51.032;7.082;2022-07-03T06:41:31;3.93;;;3.03;;
4148;SDS011;2088;51.032;7.082;2022-07-03T06:43:58;3.53;;;2.63;;
4148;SDS011;2088;51.032;7.082;2022-07-03T06:46:24;3.60;;;2.13;;
4148;SDS011;2088;51.032;7.082;2022-07-03T06:48:50;7.63;;;2.93;;
4148;SDS011;2088;51.032;7.082;2022-07-03T06:51:17;4.03;;;2.90;;
4148;SDS011;2088;51.032;7.082;2022-07-03T06:53:45;2.47;;;1.93;;
4148;SDS011;2088;51.032;7.082;2022-07-03T06:56:11;3.00;;;1.80;;
4148;SDS011;2088;51.032;7.082;2022-07-03T06:58:38;7.00;;;1.90;;
4148;SDS011;2088;51.032;7.082;2022-07-03T07:01:04;1.97;;;1.77;;
4148;SDS011;2088;51.032;7.082;2022-07-03T07:03:30;4.80;;;2.23;;
4148;SDS011;2088;51.032;7.082;2022-07-03T07:05:57;2.23;;;1.97;;
4148;SDS011;2088;51.032;7.082;2022-07-03T07:08:23;2.90;;;2.20;;
4148;SDS011;2088;51.032;7.082;2022-07-03T07:10:51;3.10;;;1.80;;
4148;SDS011;2088;51.032;7.082;2022-07-03T07:13:18;2.07;;;1.90;;
4148;SDS011;2088;51.032;7.082;2022-07-03T07:15:44;3.00;;;2.33;;
4148;SDS011;2088;51.032;7.082;2022-07-03T07:18:11;9.93;;;3.30;;
4148;SDS011;2088;51.032;7.082;2022-07-03T07:20:37;4.17;;;2.33;;
4148;SDS011;2088;51.032;7.082;2022-07-03T07:23:04;9.67;;;1.90;;
4148;SDS011;2088;51.032;7.082;2022-07-03T07:25:30;2.93;;;2.70;;
4148;SDS011;2088;51.032;7.082;2022-07-03T07:27:58;4.03;;;2.10;;
4148;SDS011;2088;51.032;7.082;2022-07-03T07:30:24;9.13;;;2.60;;
4148;SDS011;2088;51.032;7.082;2022-07-03T07:32:51;5.87;;;2.10;;
4148;SDS011;2088;51.032;7.082;2022-07-03T07:35:17;7.73;;;3.20;;
4148;SDS011;2088;51.032;7.082;2022-07-03T07:37:44;7.10;;;2.03;;
4148;SDS011;2088;51.032;7.082;2022-07-03T07:40:11;6.20;;;2.73;;
4148;SDS011;2088;51.032;7.082;2022-07-03T07:42:38;9.10;;;2.03;;
4148;SDS011;2088;51.032;7.082;2022-07-03T07:45:07;2.33;;;2.10;;
4148;SDS011;2088;51.032;7.082;2022-07-03T07:47:34;4.60;;;1.97;;
4148;SDS011;2088;51.032;7.082;2022-07-03T07:50:00;5.80;;;2.27;;
4148;SDS011;2088;51.032;7.082;2022-07-03T07:52:27;2.70;;;2.03;;
4148;SDS011;2088;51.032;7.082;2022-07-03T07:54:53;3.90;;;2.03;;
4148;SDS011;2088;51.032;7.082;2022-07-03T07:57:20;2.50;;;2.20;;
4148;SDS011;2088;51.032;7.082;2022-07-03T07:59:46;3.70;;;2.00;;
4148;SDS011;2088;51.032;7.082;2022-07-03T08:02:14;4.40;;;2.10;;
4148;SDS011;2088;51.032;7.082;2022-07-03T08:04:58;1.70;;;1.60;;
4148;SDS011;2088;51.032;7.082;2022-07-03T08:07:42;2.80;;;1.50;;
4148;SDS011;2088;51.032;7.082;2022-07-03T08:10:08;2.23;;;1.70;;
4148;SDS011;2088;51.032;7.082;2022-07-03T08:12:35;6.27;;;1.93;;
4148;SDS011;2088;51.032;7.082;2022-07-03T08:15:01;3.00;;;2.33;;
4148;SDS011;2088;51.032;7.082;2022-07-03T08:17:29;2.00;;;1.80;;
4148;SDS011;2088;51.032;7.082;2022-07-03T08:19:56;4.60;;;1.57;;
4148;SDS011;2088;51.032;7.082;2022-07-03T08:22:22;2.43;;;1.60;;
4148;SDS011;2088;51.032;7.082;2022-07-03T08:24:49;15.63;;;2.40;;
4148;SDS011;2088;51.032;7.082;2022-07-03T08:27:15;7.20;;;2.27;;
4148;SDS011;2088;51.032;7.082;2022-07-03T08:29:42;4.40;;;1.80;;
4148;SDS011;2088;51.032;7.082;2022-07-03T08:32:08;4.40;;;1.60;;
4148;SDS011;2088;51.032;7.082;2022-07-03T08:34:36;11.10;;;1.70;;
4148;SDS011;2088;51.032;7.082;2022-07-03T08:37:02;3.23;;;1.80;;
4148;SDS011;2088;51.032;7.082;2022-07-03T08:39:29;4.23;;;2.50;;
4148;SDS011;2088;51.032;7.082;2022-07-03T08:41:56;3.37;;;1.60;;
4148;SDS011;2088;51.032;7.082;2022-07-03T08:44:24;4.13;;;1.70;;
4148;SDS011;2088;51.032;7.082;2022-07-03T08:46:52;4.70;;;1.93;;
4148;SDS011;2088;51.032;7.082;2022-07-03T08:49:20;3.30;;;1.87;;
4148;SDS011;2088;51.032;7.082;2022-07-03T08:51:49;4.90;;;2.00;;
4148;SDS011;2088;51.032;7.082;2022-07-03T08:54:19;4.00;;;2.20;;
4148;SDS011;2088;51.032;7.082;2022-07-03T08:56:46;3.77;;;1.90;;
4148;SDS011;2088;51.032;7.082;2022-07-03T08:59:13;3.47;;;2.83;;
4148;SDS011;2088;51.032;7.082;2022-07-03T09:01:40;4.63;;;2.03;;
4148;SDS011;2088;51.032;7.082;2022-07-03T09:04:09;1.93;;;1.40;;
4148;SDS011;2088;51.032;7.082;2022-07-03T09:06:37;2.43;;;2.17;;
4148;SDS011;2088;51.032;7.082;2022-07-03T09:09:06;2.90;;;1.30;;
4148;SDS011;2088;51.032;7.082;2022-07-03T09:11:34;3.10;;;1.53;;
4148;SDS011;2088;51.032;7.082;2022-07-03T09:14:01;8.03;;;2.10;;
4148;SDS011;2088;51.032;7.082;2022-07-03T09:16:31;4.10;;;2.57;;
4148;SDS011;2088;51.032;7.082;2022-07-03T09:18:57;17.33;;;3.07;;
4148;SDS011;2088;51.032;7.082;2022-07-03T09:21:24;1.80;;;1.50;;
4148;SDS011;2088;51.032;7.082;2022-07-03T09:23:50;2.30;;;1.30;;
4148;SDS011;2088;51.032;7.082;2022-07-03T09:26:18;4.80;;;2.10;;
4148;SDS011;2088;51.032;7.082;2022-07-03T09:28:51;2.50;;;2.27;;
4148;SDS011;2088;51.032;7.082;2022-07-03T09:31:21;1.70;;;1.20;;
4148;SDS011;2088;51.032;7.082;2022-07-03T09:33:50;2.67;;;1.90;;
4148;SDS011;2088;51.032;7.082;2022-07-03T09:36:17;5.10;;;2.17;;
4148;SDS011;2088;51.032;7.082;2022-07-03T09:38:46;3.60;;;1.77;;
4148;SDS011;2088;51.032;7.082;2022-07-03T09:41:13;11.83;;;2.57;;
4148;SDS011;2088;51.032;7.082;2022-07-03T09:43:42;3.97;;;2.10;;
4148;SDS011;2088;51.032;7.082;2022-07-03T09:46:09;5.40;;;1.50;;
4148;SDS011;2088;51.032;7.082;2022-07-03T09:48:37;4.00;;;2.13;;
4148;SDS011;2088;51.032;7.082;2022-07-03T09:51:11;1.40;;;1.30;;
4148;SDS011;2088;51.032;7.082;2022-07-03T09:53:47;6.63;;;1.50;;
4148;SDS011;2088;51.032;7.082;2022-07-03T09:56:15;3.40;;;1.90;;
4148;SDS011;2088;51.032;7.082;2022-07-03T10:01:29;1.70;;;1.47;;
4148;SDS011;2088;51.032;7.082;2022-07-03T10:04:07;2.70;;;1.50;;
4148;SDS011;2088;51.032;7.082;2022-07-03T10:06:45;5.07;;;1.70;;
4148;SDS011;2088;51.032;7.082;2022-07-03T10:09:13;2.07;;;1.87;;
4148;SDS011;2088;51.032;7.082;2022-07-03T10:11:41;1.63;;;1.50;;
4148;SDS011;2088;51.032;7.082;2022-07-03T10:14:12;11.83;;;2.13;;
4148;SDS011;2088;51.032;7.082;2022-07-03T10:16:39;1.80;;;1.67;;
4148;SDS011;2088;51.032;7.082;2022-07-03T10:19:07;1.50;;;1.10;;
4148;SDS011;2088;51.032;7.082;2022-07-03T10:21:41;11.50;;;1.33;;
4148;SDS011;2088;51.032;7.082;2022-07-03T10:24:08;4.73;;;1.67;;
4148;SDS011;2088;51.032;7.082;2022-07-03T10:26:36;3.33;;;0.90;;
4148;SDS011;2088;51.032;7.082;2022-07-03T10:29:05;1.40;;;0.93;;
4148;SDS011;2088;51.032;7.082;2022-07-03T10:31:36;4.20;;;1.40;;
4148;SDS011;2088;51.032;7.082;2022-07-03T10:34:03;4.00;;;1.23;;
4148;SDS011;2088;51.032;7.082;2022-07-03T10:36:30;1.87;;;1.77;;
4148;SDS011;2088;51.032;7.082;2022-07-03T10:38:58;3.33;;;1.20;;
4148;SDS011;2088;51.032;7.082;2022-07-03T10:41:30;2.00;;;1.07;;
4148;SDS011;2088;51.032;7.082;2022-07-03T10:44:18;1.87;;;1.23;;
4148;SDS011;2088;51.032;7.082;2022-07-03T10:47:05;1.30;;;0.93;;
4148;SDS011;2088;51.032;7.082;2022-07-03T10:49:31;1.40;;;1.20;;
4148;SDS011;2088;51.032;7.082;2022-07-03T10:51:58;1.43;;;1.20;;
4148;SDS011;2088;51.032;7.082;2022-07-03T10:54:26;1.10;;;0.90;;
4148;SDS011;2088;51.032;7.082;2022-07-03T10:57:11;10.70;;;1.33;;
4148;SDS011;2088;51.032;7.082;2022-07-03T11:02:44;1.93;;;1.17;;
4148;SDS011;2088;51.032;7.082;2022-07-03T11:05:13;2.10;;;1.23;;
4148;SDS011;2088;51.032;7.082;2022-07-03T11:10:34;1.30;;;0.97;;
4148;SDS011;2088;51.032;7.082;2022-07-03T11:13:06;2.70;;;1.50;;
4148;SDS011;2088;51.032;7.082;2022-07-03T11:15:35;2.90;;;1.33;;
4148;SDS011;2088;51.032;7.082;2022-07-03T11:18:12;2.53;;;1.70;;
4148;SDS011;2088;51.032;7.082;2022-07-03T11:20:55;1.10;;;0.97;;
4148;SDS011;2088;51.032;7.082;2022-07-03T11:27:11;2.30;;;1.10;;
4148;SDS011;2088;51.032;7.082;2022-07-03T11:29:49;1.57;;;0.70;;
4148;SDS011;2088;51.032;7.082;2022-07-03T11:38:12;2.23;;;1.33;;
4148;SDS011;2088;51.032;7.082;2022-07-03T11:40:40;1.70;;;1.00;;
4148;SDS011;2088;51.032;7.082;2022-07-03T11:43:08;2.27;;;1.40;;
4148;SDS011;2088;51.032;7.082;2022-07-03T11:45:34;4.60;;;1.97;;
4148;SDS011;2088;51.032;7.082;2022-07-03T11:48:05;7.90;;;1.37;;
4148;SDS011;2088;51.032;7.082;2022-07-03T11:50:36;1.47;;;1.27;;
4148;SDS011;2088;51.032;7.082;2022-07-03T11:53:16;1.57;;;1.00;;
4148;SDS011;2088;51.032;7.082;2022-07-03T11:55:47;1.30;;;1.00;;
4148;SDS011;2088;51.032;7.082;2022-07-03T11:58:15;2.13;;;1.20;;
4148;SDS011;2088;51.032;7.082;2022-07-03T12:00:42;1.30;;;1.10;;
4148;SDS011;2088;51.032;7.082;2022-07-03T12:03:09;1.47;;;1.27;;
4148;SDS011;2088;51.032;7.082;2022-07-03T12:05:48;1.60;;;1.17;;
4148;SDS011;2088;51.032;7.082;2022-07-03T12:08:22;6.83;;;1.53;;
4148;SDS011;2088;51.032;7.082;2022-07-03T12:10:50;1.43;;;0.90;;
4148;SDS011;2088;51.032;7.082;2022-07-03T12:13:21;8.60;;;0.97;;
4148;SDS011;2088;51.032;7.082;2022-07-03T12:15:49;1.90;;;0.80;;
4148;SDS011;2088;51.032;7.082;2022-07-03T12:18:16;1.20;;;0.90;;
4148;SDS011;2088;51.032;7.082;2022-07-03T12:20:42;3.20;;;0.90;;
4148;SDS011;2088;51.032;7.082;2022-07-03T12:23:09;1.83;;;0.93;;
4148;SDS011;2088;51.032;7.082;2022-07-03T12:25:39;6.60;;;1.30;;
4148;SDS011;2088;51.032;7.082;2022-07-03T12:28:06;1.20;;;0.80;;
4148;SDS011;2088;51.032;7.082;2022-07-03T12:30:34;1.63;;;0.87;;
4148;SDS011;2088;51.032;7.082;2022-07-03T12:33:02;1.10;;;0.70;;
4148;SDS011;2088;51.032;7.082;2022-07-03T12:35:29;1.90;;;1.00;;
4148;SDS011;2088;51.032;7.082;2022-07-03T12:37:56;2.40;;;0.80;;
4148;SDS011;2088;51.032;7.082;2022-07-03T12:40:23;3.80;;;0.80;;
4148;SDS011;2088;51.032;7.082;2022-07-03T12:42:51;5.57;;;0.80;;
4148;SDS011;2088;51.032;7.082;2022-07-03T12:45:19;1.30;;;0.87;;
4148;SDS011;2088;51.032;7.082;2022-07-03T12:47:56;1.30;;;1.03;;
4148;SDS011;2088;51.032;7.082;2022-07-03T12:50:23;3.40;;;1.20;;
4148;SDS011;2088;51.032;7.082;2022-07-03T12:52:51;2.27;;;1.20;;
4148;SDS011;2088;51.032;7.082;2022-07-03T12:55:23;1.87;;;0.87;;
4148;SDS011;2088;51.032;7.082;2022-07-03T12:57:51;1.00;;;0.80;;
4148;SDS011;2088;51.032;7.082;2022-07-03T13:00:54;1.80;;;1.00;;
4148;SDS011;2088;51.032;7.082;2022-07-03T13:03:27;5.10;;;1.63;;
4148;SDS011;2088;51.032;7.082;2022-07-03T13:05:55;6.53;;;1.03;;
4148;SDS011;2088;51.032;7.082;2022-07-03T13:08:21;3.27;;;0.90;;
4148;SDS011;2088;51.032;7.082;2022-07-03T13:10:54;1.57;;;0.90;;
4148;SDS011;2088;51.032;7.082;2022-07-03T13:13:23;1.10;;;0.97;;
4148;SDS011;2088;51.032;7.082;2022-07-03T13:15:49;2.90;;;1.00;;
4148;SDS011;2088;51.032;7.082;2022-07-03T13:18:16;2.57;;;1.20;;
4148;SDS011;2088;51.032;7.082;2022-07-03T13:20:42;2.80;;;0.97;;
4148;SDS011;2088;51.032;7.082;2022-07-03T13:23:09;1.10;;;0.70;;
4148;SDS011;2088;51.032;7.082;2022-07-03T13:25:36;1.80;;;0.90;;
4148;SDS011;2088;51.032;7.082;2022-07-03T13:28:05;1.00;;;0.80;;
4148;SDS011;2088;51.032;7.082;2022-07-03T13:30:34;1.30;;;0.90;;
4148;SDS011;2088;51.032;7.082;2022-07-03T13:33:01;1.30;;;1.00;;
4148;SDS011;2088;51.032;7.082;2022-07-03T13:35:28;1.77;;;0.97;;
4148;SDS011;2088;51.032;7.082;2022-07-03T13:37:55;2.33;;;0.70;;
4148;SDS011;2088;51.032;7.082;2022-07-03T13:40:22;0.90;;;0.60;;
4148;SDS011;2088;51.032;7.082;2022-07-03T13:42:49;1.33;;;0.73;;
4148;SDS011;2088;51.032;7.082;2022-07-03T13:45:15;1.20;;;0.70;;
4148;SDS011;2088;51.032;7.082;2022-07-03T13:47:43;3.47;;;1.33;;
4148;SDS011;2088;51.032;7.082;2022-07-03T13:50:10;1.30;;;0.80;;
4148;SDS011;2088;51.032;7.082;2022-07-03T13:52:36;1.30;;;0.90;;
4148;SDS011;2088;51.032;7.082;2022-07-03T13:55:03;1.57;;;0.70;;
4148;SDS011;2088;51.032;7.082;2022-07-03T13:57:30;1.57;;;0.77;;
4148;SDS011;2088;51.032;7.082;2022-07-03T13:59:57;0.97;;;0.83;;
4148;SDS011;2088;51.032;7.082;2022-07-03T14:02:24;1.87;;;0.70;;
4148;SDS011;2088;51.032;7.082;2022-07-03T14:04:52;2.00;;;1.00;;
4148;SDS011;2088;51.032;7.082;2022-07-03T14:07:18;1.00;;;0.70;;
4148;SDS011;2088;51.032;7.082;2022-07-03T14:09:45;0.90;;;0.60;;
4148;SDS011;2088;51.032;7.082;2022-07-03T14:12:11;1.10;;;0.70;;
4148;SDS011;2088;51.032;7.082;2022-07-03T14:14:38;2.47;;;0.70;;
4148;SDS011;2088;51.032;7.082;2022-07-03T14:17:04;3.53;;;0.80;;
4148;SDS011;2088;51.032;7.082;2022-07-03T14:19:31;1.27;;;0.93;;
4148;SDS011;2088;51.032;7.082;2022-07-03T14:21:58;1.10;;;0.70;;
4148;SDS011;2088;51.032;7.082;2022-07-03T14:24:25;2.80;;;0.77;;
4148;SDS011;2088;51.032;7.082;2022-07-03T14:26:51;1.00;;;0.80;;
4148;SDS011;2088;51.032;7.082;2022-07-03T14:29:35;1.30;;;1.03;;
4148;SDS011;2088;51.032;7.082;2022-07-03T14:32:19;2.57;;;1.10;;
4148;SDS011;2088;51.032;7.082;2022-07-03T14:34:55;2.90;;;1.13;;
4148;SDS011;2088;51.032;7.082;2022-07-03T14:37:23;1.27;;;0.83;;
4148;SDS011;2088;51.032;7.082;2022-07-03T14:39:50;2.57;;;1.00;;
4148;SDS011;2088;51.032;7.082;2022-07-03T14:42:17;4.60;;;1.33;;
4148;SDS011;2088;51.032;7.082;2022-07-03T14:44:44;3.33;;;0.70;;
4148;SDS011;2088;51.032;7.082;2022-07-03T14:47:10;1.80;;;0.90;;
4148;SDS011;2088;51.032;7.082;2022-07-03T14:49:37;4.37;;;0.97;;
4148;SDS011;2088;51.032;7.082;2022-07-03T14:52:04;1.30;;;0.93;;
4148;SDS011;2088;51.032;7.082;2022-07-03T14:54:33;2.40;;;0.70;;
4148;SDS011;2088;51.032;7.082;2022-07-03T14:57:00;1.53;;;1.23;;
4148;SDS011;2088;51.032;7.082;2022-07-03T14:59:29;1.13;;;0.70;;
4148;SDS011;2088;51.032;7.082;2022-07-03T15:02:01;2.70;;;0.90;;
4148;SDS011;2088;51.032;7.082;2022-07-03T15:04:33;3.47;;;0.70;;
4148;SDS011;2088;51.032;7.082;2022-07-03T15:07:07;1.67;;;1.00;;
4148;SDS011;2088;51.032;7.082;2022-07-03T15:09:37;1.67;;;1.17;;
4148;SDS011;2088;51.032;7.082;2022-07-03T15:12:05;5.90;;;1.93;;
4148;SDS011;2088;51.032;7.082;2022-07-03T15:14:51;6.30;;;1.10;;
4148;SDS011;2088;51.032;7.082;2022-07-03T15:17:19;1.83;;;0.87;;
4148;SDS011;2088;51.032;7.082;2022-07-03T15:19:46;1.53;;;1.13;;
4148;SDS011;2088;51.032;7.082;2022-07-03T15:22:14;1.10;;;0.80;;
4148;SDS011;2088;51.032;7.082;2022-07-03T15:24:42;2.23;;;1.10;;
4148;SDS011;2088;51.032;7.082;2022-07-03T15:27:09;1.30;;;1.10;;
4148;SDS011;2088;51.032;7.082;2022-07-03T15:29:38;1.30;;;0.97;;
4148;SDS011;2088;51.032;7.082;2022-07-03T15:32:05;1.67;;;0.90;;
4148;SDS011;2088;51.032;7.082;2022-07-03T15:34:31;1.43;;;1.10;;
4148;SDS011;2088;51.032;7.082;2022-07-03T15:37:03;3.20;;;1.17;;
4148;SDS011;2088;51.032;7.082;2022-07-03T15:39:36;2.50;;;2.03;;
4148;SDS011;2088;51.032;7.082;2022-07-03T15:42:09;1.73;;;1.07;;
4148;SDS011;2088;51.032;7.082;2022-07-03T15:44:42;2.20;;;0.77;;
4148;SDS011;2088;51.032;7.082;2022-07-03T15:47:25;3.33;;;1.23;;